createdAt,value
2019-01-15T00:00:28.183Z,20.27
2019-01-15T00:02:55.131Z,20.28
2019-01-15T00:05:22.034Z,20.26
2019-01-15T00:07:48.945Z,20.26
2019-01-15T00:10:15.849Z,20.26
2019-01-15T00:12:42.747Z,20.26
2019-01-15T00:15:09.649Z,20.26
2019-01-15T00:17:36.566Z,20.27
2019-01-15T00:20:03.534Z,20.26
2019-01-15T00:22:30.425Z,20.26
2019-01-15T00:24:57.377Z,20.27
2019-01-15T00:27:24.288Z,20.25
2019-01-15T00:29:51.194Z,20.26
2019-01-15T00:32:18.108Z,20.26
2019-01-15T00:34:44.998Z,20.25
2019-01-15T00:37:11.933Z,20.26
2019-01-15T00:39:38.813Z,20.26
2019-01-15T00:42:05.759Z,20.26
2019-01-15T00:44:32.678Z,20.26
2019-01-15T00:46:59.574Z,20.26
2019-01-15T00:49:26.489Z,20.27
2019-01-15T00:51:53.434Z,20.27
2019-01-15T00:54:20.341Z,20.25
2019-01-15T00:56:47.242Z,20.26
2019-01-15T00:59:14.150Z,20.26
2019-01-15T01:01:41.047Z,20.27
2019-01-15T01:04:07.993Z,20.26
2019-01-15T01:06:34.906Z,20.26
2019-01-15T01:09:01.849Z,20.26
2019-01-15T01:11:28.825Z,20.26
2019-01-15T01:13:55.719Z,20.27
2019-01-15T01:16:22.656Z,20.26
2019-01-15T01:18:49.656Z,20.25
2019-01-15T01:21:16.581Z,20.25
2019-01-15T01:23:43.485Z,20.24
2019-01-15T01:26:10.390Z,20.25
2019-01-15T01:28:37.284Z,20.25
2019-01-15T01:31:04.210Z,20.23
2019-01-15T01:33:31.114Z,20.24
2019-01-15T01:35:58.026Z,20.25
2019-01-15T01:38:24.937Z,20.26
2019-01-15T01:40:51.854Z,20.26
2019-01-15T01:43:18.764Z,20.26
2019-01-15T01:45:45.669Z,20.24
2019-01-15T01:48:12.588Z,20.25
2019-01-15T01:50:39.477Z,20.26
2019-01-15T01:53:06.376Z,20.25
2019-01-15T01:55:33.321Z,20.26
2019-01-15T01:58:00.291Z,20.26
2019-01-15T02:00:27.176Z,20.25
2019-01-15T02:02:54.103Z,20.25
2019-01-15T02:05:20.996Z,20.24
2019-01-15T02:07:47.907Z,20.25
2019-01-15T02:10:14.822Z,20.26
2019-01-15T02:12:41.722Z,20.26
2019-01-15T02:15:08.645Z,20.26
2019-01-15T02:17:35.594Z,20.25
2019-01-15T02:20:02.521Z,20.25
2019-01-15T02:22:29.434Z,20.26
2019-01-15T02:24:56.328Z,20.27
2019-01-15T02:27:23.822Z,20.27
2019-01-15T02:29:50.746Z,20.26
2019-01-15T02:32:17.647Z,20.26
2019-01-15T02:34:44.542Z,20.25
2019-01-15T02:37:11.471Z,20.26
2019-01-15T02:39:38.462Z,20.27
2019-01-15T02:42:05.367Z,20.28
2019-01-15T02:44:32.278Z,20.29
2019-01-15T02:46:59.174Z,20.26
2019-01-15T02:49:26.057Z,20.26
2019-01-15T02:51:52.956Z,20.27
2019-01-15T02:54:19.916Z,20.28
2019-01-15T02:56:46.816Z,20.27
2019-01-15T02:59:13.714Z,20.27
2019-01-15T03:01:40.610Z,20.27
2019-01-15T03:04:07.543Z,20.27
2019-01-15T03:06:34.455Z,20.25
2019-01-15T03:09:01.361Z,20.24
2019-01-15T03:11:28.285Z,20.26
2019-01-15T03:13:55.184Z,20.26
2019-01-15T03:16:22.093Z,20.26
2019-01-15T03:18:49.013Z,20.25
2019-01-15T03:21:15.972Z,20.27
2019-01-15T03:23:42.880Z,20.28
2019-01-15T03:26:09.865Z,20.27
2019-01-15T03:28:36.738Z,20.28
2019-01-15T03:31:03.669Z,20.27
2019-01-15T03:33:30.561Z,20.27
2019-01-15T03:35:57.470Z,20.26
2019-01-15T03:38:24.397Z,20.27
2019-01-15T03:40:51.293Z,20.29
2019-01-15T03:43:18.202Z,20.29
2019-01-15T03:45:45.093Z,20.26
2019-01-15T03:48:12.026Z,20.27
2019-01-15T03:50:38.986Z,20.28
2019-01-15T03:53:05.888Z,20.04
2019-01-15T03:55:32.804Z,20.28
2019-01-15T03:57:59.697Z,20.28
2019-01-15T04:00:26.594Z,20.27
2019-01-15T04:02:53.509Z,20.28
2019-01-15T04:05:20.521Z,20.27
2019-01-15T04:07:49.122Z,20.26
2019-01-15T04:10:16.089Z,20.26
2019-01-15T04:12:42.995Z,20.26
2019-01-15T04:15:10.019Z,20.28
2019-01-15T04:17:36.901Z,20.27
2019-01-15T04:20:03.867Z,20.28
2019-01-15T04:22:30.800Z,20.27
2019-01-15T04:24:57.815Z,20.26
2019-01-15T04:27:24.771Z,20.27
2019-01-15T04:29:51.678Z,20.25
2019-01-15T04:32:18.634Z,20.26
2019-01-15T04:34:45.630Z,20.26
2019-01-15T04:37:12.563Z,20.26
2019-01-15T04:39:39.463Z,20.25
2019-01-15T04:42:06.385Z,20.26
2019-01-15T04:44:33.327Z,20.26
2019-01-15T04:47:00.353Z,20.28
2019-01-15T04:49:27.369Z,20.27
2019-01-15T04:51:54.306Z,20.28
2019-01-15T04:54:21.284Z,20.26
2019-01-15T04:56:48.351Z,20.27
2019-01-15T04:59:15.337Z,20.27
2019-01-15T05:01:42.246Z,20.27
2019-01-15T05:04:09.161Z,20.28
2019-01-15T05:06:36.069Z,20.27
2019-01-15T05:09:03.667Z,20.25
2019-01-15T05:11:30.605Z,20.27
2019-01-15T05:13:57.546Z,20.26
2019-01-15T05:16:24.486Z,20.28
2019-01-15T05:18:51.441Z,20.26
2019-01-15T05:21:18.353Z,20.27
2019-01-15T05:23:45.259Z,20.26
2019-01-15T05:26:12.186Z,20.25
2019-01-15T05:28:39.098Z,20.26
2019-01-15T05:31:06.109Z,20.08
2019-01-15T05:33:33.035Z,20.25
2019-01-15T05:35:59.960Z,20.26
2019-01-15T05:38:26.905Z,20.23
2019-01-15T05:40:53.826Z,20.24
2019-01-15T05:43:20.745Z,20.26
2019-01-15T05:45:48.689Z,20.24
2019-01-15T05:48:17.094Z,20.23
2019-01-15T05:50:54.674Z,20.24
2019-01-15T05:53:21.573Z,20.22
2019-01-15T05:55:48.479Z,20.25
2019-01-15T05:58:15.418Z,20.25
2019-01-15T06:00:42.597Z,20.25
2019-01-15T06:03:09.513Z,20.25
2019-01-15T06:05:36.446Z,20.24
2019-01-15T06:08:03.346Z,20.24
2019-01-15T06:10:30.264Z,20.22
2019-01-15T06:12:57.210Z,20.25
2019-01-15T06:15:24.125Z,20.23
2019-01-15T06:17:51.013Z,20.22
2019-01-15T06:20:17.930Z,20.25
2019-01-15T06:22:44.856Z,20.23
2019-01-15T06:25:11.790Z,20.25
2019-01-15T06:27:38.712Z,20.22
2019-01-15T06:30:05.605Z,20.22
2019-01-15T06:32:32.521Z,20.22
2019-01-15T06:34:59.474Z,20.22
2019-01-15T06:37:26.482Z,20.24
2019-01-15T06:39:53.401Z,20.23
2019-01-15T06:42:20.326Z,20.21
2019-01-15T06:44:47.231Z,20.21
2019-01-15T06:47:14.157Z,20.21
2019-01-15T06:49:41.088Z,20.21
2019-01-15T06:52:08.001Z,20.20
2019-01-15T06:54:34.896Z,20.23
2019-01-15T06:57:01.830Z,20.24
2019-01-15T06:59:28.811Z,20.23
2019-01-15T07:01:55.731Z,20.22
2019-01-15T07:04:22.650Z,20.21
2019-01-15T07:06:49.580Z,20.22
2019-01-15T07:09:16.500Z,20.22
2019-01-15T07:11:43.401Z,20.21
2019-01-15T07:14:10.294Z,20.21
2019-01-15T07:16:37.203Z,20.20
2019-01-15T07:19:04.105Z,20.21
2019-01-15T07:21:31.226Z,20.21
2019-01-15T07:23:58.136Z,20.21
2019-01-15T07:26:25.049Z,20.03
2019-01-15T07:28:52.284Z,20.20
2019-01-15T07:31:19.227Z,20.21
2019-01-15T07:33:46.176Z,20.21
2019-01-15T07:36:13.081Z,20.22
2019-01-15T07:38:40.001Z,20.20
2019-01-15T07:41:07.107Z,20.21
2019-01-15T07:43:34.043Z,20.21
2019-01-15T07:46:00.943Z,20.20
2019-01-15T07:48:27.857Z,20.21
2019-01-15T07:50:54.866Z,20.21
2019-01-15T07:53:21.808Z,20.21
2019-01-15T07:55:48.802Z,20.20
2019-01-15T07:58:15.673Z,20.22
2019-01-15T08:00:42.654Z,20.21
2019-01-15T08:03:09.628Z,20.21
2019-01-15T08:05:36.576Z,20.23
2019-01-15T08:08:03.519Z,20.21
2019-01-15T08:10:30.430Z,20.22
2019-01-15T08:12:57.346Z,20.23
2019-01-15T08:15:24.307Z,20.24
2019-01-15T08:17:51.238Z,20.23
2019-01-15T08:20:18.186Z,20.22
2019-01-15T08:22:45.094Z,20.22
2019-01-15T08:25:12.002Z,20.23
2019-01-15T08:27:38.965Z,20.23
2019-01-15T08:30:05.943Z,20.21
2019-01-15T08:32:32.870Z,20.25
2019-01-15T08:34:59.974Z,20.32
2019-01-15T08:37:26.919Z,20.32
2019-01-15T08:39:53.850Z,20.33
2019-01-15T08:42:20.810Z,20.33
2019-01-15T08:44:48.005Z,20.36
2019-01-15T08:47:14.973Z,19.83
2019-01-15T08:49:41.875Z,19.41
2019-01-15T08:52:08.769Z,19.19
2019-01-15T08:54:35.662Z,18.96
2019-01-15T08:57:02.567Z,18.77
2019-01-15T08:59:29.458Z,18.73
2019-01-15T09:01:56.358Z,18.46
2019-01-15T09:04:23.262Z,18.38
2019-01-15T09:06:50.216Z,18.33
2019-01-15T09:09:17.189Z,18.09
2019-01-15T09:11:44.030Z,18.05
2019-01-15T09:14:10.930Z,18.03
2019-01-15T09:16:37.828Z,17.91
2019-01-15T09:19:04.730Z,17.90
2019-01-15T09:21:31.730Z,17.81
2019-01-15T09:23:58.624Z,17.58
2019-01-15T09:26:25.598Z,17.62
2019-01-15T09:28:52.788Z,17.56
2019-01-15T09:31:19.629Z,17.38
2019-01-15T09:33:46.533Z,17.39
2019-01-15T09:36:13.435Z,17.33
2019-01-15T09:38:40.340Z,17.26
2019-01-15T09:41:07.262Z,17.15
2019-01-15T09:43:34.175Z,17.18
2019-01-15T09:46:01.064Z,16.97
2019-01-15T09:48:28.238Z,17.18
2019-01-15T09:50:55.138Z,17.59
2019-01-15T09:53:22.062Z,17.87
2019-01-15T09:55:49.041Z,18.04
2019-01-15T09:58:15.943Z,18.16
2019-01-15T10:00:42.886Z,18.25
2019-01-15T10:03:09.725Z,18.31
2019-01-15T10:05:36.616Z,18.37
2019-01-15T10:08:03.498Z,18.44
2019-01-15T10:10:30.377Z,18.47
2019-01-15T10:12:57.255Z,18.53
2019-01-15T10:15:24.163Z,18.57
2019-01-15T10:17:51.039Z,18.39
2019-01-15T10:20:17.924Z,18.66
2019-01-15T10:22:44.809Z,18.69
2019-01-15T10:25:13.326Z,18.71
2019-01-15T10:27:40.403Z,18.75
2019-01-15T10:30:07.207Z,18.77
2019-01-15T10:32:35.768Z,18.81
2019-01-15T10:35:02.712Z,18.83
2019-01-15T10:37:29.606Z,18.85
2019-01-15T10:39:56.483Z,18.88
2019-01-15T10:42:23.383Z,18.89
2019-01-15T10:44:50.267Z,18.90
2019-01-15T10:47:17.154Z,18.90
2019-01-15T10:49:44.035Z,18.90
2019-01-15T10:52:10.935Z,18.90
2019-01-15T10:54:37.822Z,18.89
2019-01-15T10:57:04.703Z,18.90
2019-01-15T10:59:31.512Z,18.90
2019-01-15T11:01:58.405Z,18.90
2019-01-15T11:04:25.284Z,18.90
2019-01-15T11:06:52.172Z,18.91
2019-01-15T11:09:19.058Z,18.91
2019-01-15T11:11:45.937Z,18.92
2019-01-15T11:14:14.454Z,18.93
2019-01-15T11:16:41.372Z,18.92
2019-01-15T11:19:08.223Z,18.92
2019-01-15T11:21:35.127Z,18.92
2019-01-15T11:24:02.017Z,18.93
2019-01-15T11:26:28.905Z,18.94
2019-01-15T11:28:55.787Z,18.96
2019-01-15T11:31:22.667Z,18.98
2019-01-15T11:33:49.552Z,18.99
2019-01-15T11:36:16.432Z,19.00
2019-01-15T11:38:43.312Z,19.02
2019-01-15T11:41:10.219Z,19.03
2019-01-15T11:43:37.027Z,19.05
2019-01-15T11:46:03.911Z,19.06
2019-01-15T11:48:30.728Z,19.07
2019-01-15T11:50:57.844Z,19.09
2019-01-15T11:53:24.699Z,19.09
2019-01-15T11:55:51.812Z,19.10
2019-01-15T11:58:18.685Z,19.11
2019-01-15T12:00:47.218Z,19.12
2019-01-15T12:03:18.444Z,19.13
2019-01-15T12:06:03.282Z,19.13
2019-01-15T12:08:48.557Z,19.17
2019-01-15T12:11:17.212Z,19.19
2019-01-15T12:13:55.058Z,19.19
2019-01-15T12:16:41.917Z,19.21
2019-01-15T12:19:26.568Z,19.23
2019-01-15T12:21:55.085Z,19.23
2019-01-15T12:24:32.604Z,19.23
2019-01-15T12:27:13.392Z,19.25
2019-01-15T12:29:41.966Z,19.25
2019-01-15T12:32:27.036Z,19.27
2019-01-15T12:35:07.721Z,19.29
2019-01-15T12:37:52.814Z,19.31
2019-01-15T12:40:30.129Z,19.32
2019-01-15T12:43:15.015Z,19.35
2019-01-15T12:45:49.839Z,19.37
2019-01-15T12:48:21.184Z,19.37
2019-01-15T12:51:07.799Z,19.39
2019-01-15T12:53:36.338Z,19.39
2019-01-15T12:56:10.893Z,19.40
2019-01-15T12:58:39.471Z,19.42
2019-01-15T13:01:10.939Z,19.42
2019-01-15T13:03:54.686Z,19.41
2019-01-15T13:06:26.165Z,19.45
2019-01-15T13:08:54.693Z,19.46
2019-01-15T13:11:23.225Z,19.47
2019-01-15T13:14:09.822Z,19.49
2019-01-15T13:16:53.670Z,19.48
2019-01-15T13:19:27.993Z,19.50
2019-01-15T13:21:56.570Z,19.51
2019-01-15T13:24:25.274Z,19.51
2019-01-15T13:27:10.086Z,19.52
2019-01-15T13:29:54.818Z,19.52
2019-01-15T13:32:23.451Z,19.54
2019-01-15T13:35:01.046Z,19.53
2019-01-15T13:37:38.778Z,19.54
2019-01-15T13:40:19.537Z,19.55
2019-01-15T13:42:51.258Z,19.57
2019-01-15T13:45:19.947Z,19.57
2019-01-15T13:47:57.271Z,19.60
2019-01-15T13:50:25.847Z,19.59
2019-01-15T13:53:10.903Z,19.59
2019-01-15T13:55:54.618Z,19.59
2019-01-15T13:58:39.430Z,19.59
2019-01-15T14:01:16.821Z,19.58
2019-01-15T14:03:48.366Z,19.60
2019-01-15T14:06:33.227Z,19.60
2019-01-15T14:09:13.818Z,19.59
2019-01-15T14:11:42.410Z,19.63
2019-01-15T14:14:10.960Z,19.66
2019-01-15T14:16:55.949Z,19.71
2019-01-15T14:19:36.705Z,19.73
2019-01-15T14:22:23.501Z,19.76
2019-01-15T14:25:07.241Z,19.79
2019-01-15T14:27:44.841Z,19.81
2019-01-15T14:30:13.460Z,19.81
2019-01-15T14:32:44.780Z,19.80
2019-01-15T14:35:29.543Z,19.80
2019-01-15T14:37:58.178Z,19.79
2019-01-15T14:40:32.511Z,19.79
2019-01-15T14:43:01.102Z,19.79
2019-01-15T14:45:32.775Z,19.81
2019-01-15T14:48:10.154Z,19.82
2019-01-15T14:50:38.694Z,19.83
2019-01-15T14:53:13.163Z,19.84
2019-01-15T14:56:00.070Z,19.84
2019-01-15T14:58:45.355Z,19.85
2019-01-15T15:01:19.726Z,19.86
2019-01-15T15:03:51.184Z,19.86
2019-01-15T15:06:19.730Z,19.87
2019-01-15T15:08:48.289Z,19.87
2019-01-15T15:11:19.522Z,19.85
2019-01-15T15:14:04.642Z,19.88
2019-01-15T15:16:33.177Z,19.88
2019-01-15T15:19:13.882Z,19.88
2019-01-15T15:21:42.451Z,19.90
2019-01-15T15:24:13.945Z,19.90
2019-01-15T15:26:42.474Z,19.89
2019-01-15T15:29:27.474Z,19.90
2019-01-15T15:31:58.852Z,19.90
2019-01-15T15:34:27.410Z,19.93
2019-01-15T15:37:01.954Z,19.92
2019-01-15T15:39:36.341Z,19.94
2019-01-15T15:42:10.768Z,19.96
2019-01-15T15:44:39.330Z,19.94
2019-01-15T15:47:13.894Z,19.95
2019-01-15T15:49:42.430Z,19.95
2019-01-15T15:52:16.955Z,19.97
2019-01-15T15:55:01.636Z,19.95
2019-01-15T15:57:46.505Z,19.96
2019-01-15T16:00:24.281Z,19.98
2019-01-15T16:03:05.126Z,19.97
2019-01-15T16:05:50.296Z,19.98
2019-01-15T16:08:35.099Z,19.99
2019-01-15T16:11:03.675Z,19.98
2019-01-15T16:13:41.438Z,19.99
2019-01-15T16:16:18.969Z,20.00
2019-01-15T16:18:46.165Z,20.00
2019-01-15T16:21:14.702Z,20.02
2019-01-15T16:23:46.390Z,20.03
2019-01-15T16:26:24.068Z,20.03
2019-01-15T16:29:04.926Z,20.02
2019-01-15T16:31:51.944Z,20.04
2019-01-15T16:34:23.226Z,20.04
2019-01-15T16:36:51.774Z,20.04
2019-01-15T16:39:20.318Z,20.03
2019-01-15T16:42:04.122Z,20.03
2019-01-15T16:44:32.715Z,20.04
2019-01-15T16:47:01.245Z,20.05
2019-01-15T16:49:32.822Z,20.06
2019-01-15T16:52:13.697Z,20.09
2019-01-15T16:54:42.197Z,20.08
2019-01-15T16:57:22.909Z,20.08
2019-01-15T17:00:07.635Z,20.10
2019-01-15T17:02:42.181Z,20.08
2019-01-15T17:05:22.609Z,20.10
2019-01-15T17:08:06.162Z,20.09
2019-01-15T17:10:34.701Z,20.08
2019-01-15T17:13:06.180Z,20.10
2019-01-15T17:15:37.806Z,20.09
2019-01-15T17:18:12.522Z,20.10
2019-01-15T17:20:41.050Z,20.09
2019-01-15T17:23:09.585Z,20.09
2019-01-15T17:25:43.922Z,20.09
2019-01-15T17:28:12.453Z,20.07
2019-01-15T17:30:46.882Z,20.08
2019-01-15T17:33:15.414Z,20.09
2019-01-15T17:36:00.227Z,20.07
2019-01-15T17:38:41.121Z,20.08
2019-01-15T17:41:15.639Z,20.09
2019-01-15T17:43:50.178Z,20.09
2019-01-15T17:46:19.049Z,20.08
2019-01-15T17:48:50.220Z,20.10
2019-01-15T17:51:22.312Z,20.08
2019-01-15T17:53:51.489Z,20.09
2019-01-15T17:56:28.958Z,20.10
2019-01-15T17:59:12.833Z,20.09
2019-01-15T18:01:50.156Z,20.09
2019-01-15T18:04:37.104Z,20.10
2019-01-15T18:07:05.614Z,20.10
2019-01-15T18:09:40.417Z,20.09
2019-01-15T18:12:25.483Z,20.09
2019-01-15T18:15:10.675Z,20.10
2019-01-15T18:17:45.205Z,20.09
2019-01-15T18:20:25.945Z,20.09
2019-01-15T18:22:54.481Z,20.11
2019-01-15T18:25:25.738Z,20.11
2019-01-15T18:27:57.207Z,20.11
2019-01-15T18:30:31.519Z,20.11
2019-01-15T18:33:00.056Z,20.10
2019-01-15T18:35:28.588Z,20.10
2019-01-15T18:38:05.861Z,20.11
2019-01-15T18:40:34.427Z,20.11
2019-01-15T18:43:12.289Z,20.12
2019-01-15T18:45:40.856Z,20.12
2019-01-15T18:48:25.603Z,20.12
2019-01-15T18:51:10.787Z,20.11
2019-01-15T18:53:57.465Z,20.12
2019-01-15T18:56:26.022Z,20.14
2019-01-15T18:59:06.554Z,20.13
2019-01-15T19:01:46.934Z,20.12
2019-01-15T19:04:42.570Z,20.13
2019-01-15T19:07:29.133Z,20.13
2019-01-15T19:10:03.517Z,20.16
2019-01-15T19:12:44.071Z,20.19
2019-01-15T19:15:12.601Z,20.20
2019-01-15T19:17:53.490Z,20.23
2019-01-15T19:20:22.035Z,20.23
2019-01-15T19:23:02.859Z,20.23
2019-01-15T19:25:31.403Z,20.21
2019-01-15T19:27:59.924Z,20.20
2019-01-15T19:30:40.686Z,20.20
2019-01-15T19:33:11.969Z,20.21
2019-01-15T19:35:56.869Z,20.20
2019-01-15T19:38:37.518Z,20.21
2019-01-15T19:41:22.548Z,20.20
2019-01-15T19:44:00.138Z,20.20
2019-01-15T19:46:44.898Z,20.20
2019-01-15T19:49:13.438Z,20.21
2019-01-15T19:52:00.073Z,20.20
2019-01-15T19:54:31.307Z,20.21
2019-01-15T19:57:00.000Z,20.21
2019-01-15T19:59:43.559Z,20.23
2019-01-15T20:02:14.918Z,20.23
2019-01-15T20:04:43.476Z,20.22
2019-01-15T20:07:20.866Z,20.22
2019-01-15T20:09:52.364Z,20.23
2019-01-15T20:12:23.748Z,20.25
2019-01-15T20:14:58.257Z,20.25
2019-01-15T20:17:32.535Z,20.25
2019-01-15T20:20:17.321Z,20.25
2019-01-15T20:22:47.187Z,20.25
2019-01-15T20:25:15.945Z,20.26
2019-01-15T20:27:56.725Z,20.26
2019-01-15T20:30:25.270Z,20.26
2019-01-15T20:33:02.761Z,20.27
2019-01-15T20:35:47.908Z,20.27
2019-01-15T20:38:19.183Z,20.27
2019-01-15T20:40:50.433Z,20.28
2019-01-15T20:43:19.003Z,20.29
2019-01-15T20:45:59.673Z,20.29
2019-01-15T20:48:28.221Z,20.29
2019-01-15T20:51:08.812Z,20.30
2019-01-15T20:53:52.319Z,20.29
2019-01-15T20:56:37.165Z,20.30
2019-01-15T20:59:22.207Z,20.30
2019-01-15T21:01:56.690Z,20.30
2019-01-15T21:04:40.234Z,20.30
2019-01-15T21:07:14.742Z,20.31
2019-01-15T21:09:59.527Z,20.31
2019-01-15T21:12:28.061Z,20.32
2019-01-15T21:15:08.831Z,20.32
2019-01-15T21:17:43.324Z,20.32
2019-01-15T21:20:14.796Z,20.32
2019-01-15T21:22:52.342Z,20.33
2019-01-15T21:25:36.954Z,20.32
2019-01-15T21:28:05.527Z,20.33
2019-01-15T21:30:50.837Z,20.33
2019-01-15T21:33:35.694Z,20.33
2019-01-15T21:36:20.686Z,20.33
2019-01-15T21:38:49.202Z,20.35
2019-01-15T21:41:26.810Z,20.35
2019-01-15T21:44:13.437Z,20.36
2019-01-15T21:46:51.069Z,20.35
2019-01-15T21:49:22.426Z,20.37
2019-01-15T21:52:03.030Z,20.36
2019-01-15T21:54:46.653Z,20.36
2019-01-15T21:57:30.045Z,20.37
2019-01-15T21:59:58.587Z,20.36
2019-01-15T22:02:33.332Z,20.37
2019-01-15T22:05:04.604Z,20.37
2019-01-15T22:07:45.144Z,20.38
2019-01-15T22:10:19.474Z,20.38
2019-01-15T22:12:50.695Z,20.38
2019-01-15T22:15:35.452Z,20.38
2019-01-15T22:18:13.167Z,20.38
2019-01-15T22:20:50.635Z,20.39
2019-01-15T22:23:35.463Z,20.39
2019-01-15T22:26:09.807Z,20.39
2019-01-15T22:28:53.427Z,20.38
2019-01-15T22:31:38.013Z,20.39
2019-01-15T22:34:22.762Z,20.38
2019-01-15T22:37:00.343Z,20.39
2019-01-15T22:39:28.897Z,20.38
2019-01-15T22:41:57.466Z,20.40
2019-01-15T22:44:26.030Z,20.39
2019-01-15T22:46:54.645Z,20.39
2019-01-15T22:49:32.530Z,20.40
2019-01-15T22:52:01.142Z,20.38
2019-01-15T22:54:41.946Z,20.39
2019-01-15T22:57:19.576Z,20.39
2019-01-15T22:59:48.179Z,20.39
2019-01-15T23:02:16.810Z,20.40
2019-01-15T23:04:45.442Z,20.40
2019-01-15T23:07:16.732Z,20.40
2019-01-15T23:09:54.264Z,20.41
2019-01-15T23:12:37.851Z,20.40
2019-01-15T23:15:12.262Z,20.41
2019-01-15T23:18:01.987Z,20.40
2019-01-15T23:20:29.105Z,20.40
2019-01-15T23:23:09.712Z,20.41
2019-01-15T23:25:41.247Z,20.41
2019-01-15T23:28:12.861Z,20.40
2019-01-15T23:30:44.414Z,20.41
2019-01-15T23:33:13.081Z,20.41
2019-01-15T23:35:47.866Z,20.40
2019-01-15T23:38:28.663Z,20.41
2019-01-15T23:41:02.568Z,20.41
2019-01-15T23:43:31.128Z,20.40
2019-01-15T23:46:16.291Z,20.40
2019-01-15T23:48:44.907Z,20.41
2019-01-15T23:51:22.422Z,20.40
2019-01-15T23:54:06.331Z,20.41
2019-01-15T23:56:38.089Z,20.42
2019-01-15T23:59:24.975Z,20.42
